Home   Weather   USA   Salt Lake City   Past weeks
Flag for USA

Past Weather in Salt Lake City, Utah, USA — August 2020

Currently: 91 °F. Partly sunny. (Weather station: Salt Lake City International Airport, USA). See more current weather

August 2020 Weather in Salt Lake City — Graph

°F

High & Low Weather Summary for August 2020

 TemperatureHumidityPressure
High103 °F (Aug 1, 3:54 pm)73% (Aug 26, 2:54 am)30.07 "Hg (Aug 26, 2:54 am)
Low57 °F (Aug 31, 11:54 pm)6% (Aug 6, 4:54 pm)29.59 "Hg (Aug 26, 11:54 pm)
Average83 °F24%29.81 "Hg
* Reported Aug 1 12:54 am — Aug 31 11:54 pm, Salt Lake City. Weather by CustomWeather, © 2022

Note: Actual official high and low records may vary slightly from our data, if they occured in-between our weather recording intervals... More about our weather records

Salt Lake City Weather History for August 1, 2020

Scroll right to see more
 ConditionsComfort  
Time TempWeatherWind HumidityBarometerVisibility
12:54 am
Sat, Aug 1
84 °FPassing clouds.12 mph19%29.78 "Hg10 mi
1:54 am82 °FClear.12 mph22%29.78 "Hg10 mi
2:54 am81 °FClear.8 mph22%29.78 "Hg10 mi
3:54 am80 °FPassing clouds.3 mph26%29.79 "Hg10 mi
4:54 am77 °FPassing clouds.7 mph28%29.80 "Hg10 mi
5:54 am77 °FPassing clouds.8 mph28%29.81 "Hg10 mi
6:54 am75 °FPassing clouds.6 mph33%29.84 "Hg10 mi
7:54 am78 °FPassing clouds.7 mph30%29.85 "Hg10 mi
8:54 am84 °FPassing clouds.8 mph24%29.86 "Hg10 mi
9:54 am89 °FScattered clouds.9 mph19%29.87 "Hg10 mi
10:54 am93 °FPassing clouds.10 mph16%29.86 "Hg10 mi
11:54 am95 °FPassing clouds.No wind15%29.85 "Hg10 mi
12:54 pm97 °FPassing clouds.7 mph14%29.83 "Hg10 mi
1:54 pm101 °FScattered clouds.No wind10%29.80 "Hg10 mi
2:54 pm102 °FPartly sunny.5 mph10%29.79 "Hg10 mi
3:54 pm103 °FScattered clouds.12 mph11%29.78 "Hg10 mi
4:54 pm103 °FPartly sunny.12 mph10%29.76 "Hg10 mi
5:54 pm103 °FBroken clouds.12 mph11%29.75 "Hg10 mi
6:54 pm100 °FBroken clouds.12 mph10%29.76 "Hg10 mi
7:54 pm97 °FPartly sunny.9 mph13%29.76 "Hg10 mi
8:54 pm89 °FPassing clouds.7 mph23%29.78 "Hg10 mi
9:54 pm89 °FPassing clouds.7 mph16%29.78 "Hg10 mi
10:54 pm84 °FPartly cloudy.9 mph19%29.78 "Hg10 mi
11:54 pm88 °FPartly cloudy.10 mph15%29.76 "Hg10 mi
Weather by CustomWeather, © 2022

See weather overview